createdAt,value
2023-03-18T00:01:22.209Z,5.40
2023-03-18T00:02:22.237Z,5.90
2023-03-18T00:04:26.196Z,5.50
2023-03-18T00:05:26.189Z,5.10
2023-03-18T00:07:19.287Z,5.60
2023-03-18T00:08:19.261Z,5.30
2023-03-18T00:10:23.282Z,5.50
2023-03-18T00:11:23.280Z,5.30
2023-03-18T00:13:27.283Z,5.00
2023-03-18T00:14:27.265Z,5.30
2023-03-18T00:15:27.259Z,5.40
2023-03-18T00:16:27.363Z,5.20
2023-03-18T00:17:27.242Z,5.30
2023-03-18T00:18:27.235Z,4.90
2023-03-18T00:19:27.221Z,5.20
2023-03-18T00:20:27.213Z,5.30
2023-03-18T00:21:27.205Z,5.00
2023-03-18T00:22:27.198Z,5.00
2023-03-18T00:23:27.184Z,5.50
2023-03-18T00:24:27.191Z,5.30
2023-03-18T00:25:27.167Z,5.20
2023-03-18T00:26:27.180Z,5.20
2023-03-18T00:27:27.152Z,5.10
2023-03-18T00:28:27.146Z,5.20
2023-03-18T00:29:27.139Z,5.40
2023-03-18T00:30:27.126Z,5.20
2023-03-18T00:31:27.136Z,5.30
2023-03-18T00:32:27.111Z,5.00
2023-03-18T00:33:27.108Z,5.20
2023-03-18T00:34:27.094Z,5.10
2023-03-18T00:35:27.084Z,4.80
2023-03-18T00:36:27.074Z,5.30
2023-03-18T00:37:27.071Z,4.90
2023-03-18T00:38:27.055Z,5.40
2023-03-18T00:39:27.043Z,4.90
2023-03-18T00:40:27.060Z,5.10
2023-03-18T00:41:27.047Z,5.10
2023-03-18T00:42:27.021Z,5.10
2023-03-18T00:43:27.012Z,5.20
2023-03-18T00:44:27.001Z,5.00
2023-03-18T00:45:27.088Z,5.00
2023-03-18T00:46:27.078Z,5.30
2023-03-18T00:47:26.978Z,5.00
2023-03-18T00:48:26.976Z,4.70
2023-03-18T00:49:26.964Z,4.70
2023-03-18T00:50:26.955Z,5.00
2023-03-18T00:51:26.950Z,5.10
2023-03-18T00:52:26.934Z,5.40
2023-03-18T00:53:26.927Z,4.90
2023-03-18T00:54:26.921Z,4.70
2023-03-18T00:55:26.910Z,5.10
2023-03-18T00:56:26.900Z,5.00
2023-03-18T00:57:26.890Z,4.80
2023-03-18T00:58:26.882Z,5.00
2023-03-18T00:59:26.873Z,4.80
2023-03-18T01:00:26.870Z,5.00
2023-03-18T01:01:26.964Z,5.20
2023-03-18T01:02:26.872Z,5.20
2023-03-18T01:03:26.840Z,5.10
2023-03-18T01:04:26.830Z,4.90
2023-03-18T01:05:26.826Z,4.80
2023-03-18T01:06:26.817Z,5.20
2023-03-18T01:07:26.809Z,4.80
2023-03-18T01:08:26.797Z,4.90
2023-03-18T01:09:26.785Z,5.20
2023-03-18T01:10:26.779Z,4.90
2023-03-18T01:11:26.813Z,4.80
2023-03-18T01:12:26.760Z,4.80
2023-03-18T01:13:26.763Z,4.90
2023-03-18T01:14:26.744Z,4.90
2023-03-18T01:15:26.744Z,5.10
2023-03-18T01:16:26.829Z,4.60
2023-03-18T01:17:26.744Z,4.90
2023-03-18T01:18:26.708Z,4.90
2023-03-18T01:19:26.698Z,4.90
2023-03-18T01:20:26.689Z,4.80
2023-03-18T01:21:26.706Z,5.10
2023-03-18T01:22:26.673Z,5.10
2023-03-18T01:23:26.662Z,4.90
2023-03-18T01:24:26.657Z,5.00
2023-03-18T01:25:26.649Z,5.10
2023-03-18T01:26:26.641Z,4.90
2023-03-18T01:27:26.650Z,4.90
2023-03-18T01:28:26.635Z,5.20
2023-03-18T01:29:26.612Z,4.80
2023-03-18T01:30:26.614Z,5.10
2023-03-18T01:31:26.622Z,4.90
2023-03-18T01:32:26.584Z,5.10
2023-03-18T01:33:26.583Z,4.90
2023-03-18T01:34:26.568Z,4.90
2023-03-18T01:35:26.559Z,5.00
2023-03-18T01:36:26.550Z,5.00
2023-03-18T01:37:26.647Z,4.90
2023-03-18T01:38:26.550Z,4.90
2023-03-18T01:39:26.525Z,4.80
2023-03-18T01:40:26.516Z,4.70
2023-03-18T01:41:26.508Z,5.00
2023-03-18T01:42:26.496Z,4.80
2023-03-18T01:43:26.505Z,4.90
2023-03-18T01:44:26.488Z,5.20
2023-03-18T01:45:26.523Z,4.90
2023-03-18T01:46:26.471Z,5.00
2023-03-18T01:47:26.449Z,5.10
2023-03-18T01:48:26.448Z,4.80
2023-03-18T01:49:26.442Z,4.70
2023-03-18T01:50:26.441Z,4.80
2023-03-18T01:51:26.411Z,5.00
2023-03-18T01:52:26.405Z,5.00
2023-03-18T01:53:26.393Z,4.70
2023-03-18T01:54:26.406Z,4.70
2023-03-18T01:55:26.372Z,5.20
2023-03-18T01:56:26.367Z,4.90
2023-03-18T01:57:26.356Z,4.90
2023-03-18T01:58:26.349Z,4.90
2023-03-18T01:59:26.404Z,5.30
2023-03-18T02:00:26.334Z,4.70
2023-03-18T02:01:26.533Z,4.90
2023-03-18T02:02:26.317Z,4.80
2023-03-18T02:03:26.304Z,4.90
2023-03-18T02:04:26.295Z,5.00
2023-03-18T02:05:26.285Z,5.00
2023-03-18T02:06:26.296Z,5.30
2023-03-18T02:07:26.269Z,4.90
2023-03-18T02:08:26.259Z,4.70
2023-03-18T02:09:26.257Z,4.60
2023-03-18T02:10:26.246Z,4.60
2023-03-18T02:11:26.240Z,4.80
2023-03-18T02:12:26.223Z,4.50
2023-03-18T02:13:26.221Z,4.80
2023-03-18T02:14:26.205Z,4.80
2023-03-18T02:15:26.198Z,4.90
2023-03-18T02:16:26.230Z,4.70
2023-03-18T02:17:26.202Z,4.90
2023-03-18T02:18:26.173Z,4.50
2023-03-18T02:19:26.162Z,4.70
2023-03-18T02:20:26.158Z,4.80
2023-03-18T02:21:26.193Z,4.70
2023-03-18T02:22:26.137Z,5.10
2023-03-18T02:23:26.131Z,5.10
2023-03-18T02:24:26.117Z,4.80
2023-03-18T02:25:26.138Z,4.70
2023-03-18T02:26:26.100Z,4.80
2023-03-18T02:27:26.092Z,4.90
2023-03-18T02:28:26.080Z,4.80
2023-03-18T02:29:26.074Z,5.10
2023-03-18T02:30:26.065Z,4.90
2023-03-18T02:31:26.087Z,4.80
2023-03-18T02:32:26.047Z,4.70
2023-03-18T02:33:26.047Z,4.90
2023-03-18T02:34:26.032Z,4.70
2023-03-18T02:35:26.046Z,4.70
2023-03-18T02:36:26.016Z,4.90
2023-03-18T02:37:26.011Z,4.70
2023-03-18T02:38:25.994Z,5.00
2023-03-18T02:39:26.008Z,5.20
2023-03-18T02:40:25.977Z,5.00
2023-03-18T02:41:25.973Z,4.80
2023-03-18T02:42:25.961Z,4.80
2023-03-18T02:43:25.972Z,4.90
2023-03-18T02:44:25.943Z,5.00
2023-03-18T02:45:25.932Z,4.90
2023-03-18T02:46:25.979Z,5.20
2023-03-18T02:47:25.913Z,5.00
2023-03-18T02:48:25.903Z,4.80
2023-03-18T02:49:25.897Z,4.80
2023-03-18T02:50:25.890Z,5.40
2023-03-18T02:51:25.876Z,4.60
2023-03-18T02:52:25.876Z,4.70
2023-03-18T02:53:25.864Z,4.90
2023-03-18T02:54:25.861Z,4.80
2023-03-18T02:55:25.852Z,4.70
2023-03-18T02:56:25.837Z,4.50
2023-03-18T02:57:25.829Z,4.50
2023-03-18T02:58:25.823Z,4.90
2023-03-18T02:59:25.810Z,4.50
2023-03-18T03:00:25.802Z,4.50
2023-03-18T03:01:25.888Z,4.50
2023-03-18T03:02:25.826Z,4.80
2023-03-18T03:03:25.929Z,4.40
2023-03-18T03:04:25.762Z,5.00
2023-03-18T03:05:25.765Z,4.70
2023-03-18T03:06:25.750Z,4.20
2023-03-18T03:07:25.741Z,4.40
2023-03-18T03:08:25.736Z,5.00
2023-03-18T03:09:25.724Z,4.60
2023-03-18T03:10:25.714Z,4.60
2023-03-18T03:11:25.706Z,4.80
2023-03-18T03:12:25.696Z,4.90
2023-03-18T03:13:25.687Z,4.60
2023-03-18T03:14:25.676Z,4.70
2023-03-18T03:15:25.665Z,4.80
2023-03-18T03:16:25.672Z,4.90
2023-03-18T03:17:25.648Z,4.60
2023-03-18T03:18:25.636Z,4.70
2023-03-18T03:19:25.630Z,4.60
2023-03-18T03:20:25.626Z,4.60
2023-03-18T03:21:25.618Z,4.60
2023-03-18T03:22:25.604Z,4.40
2023-03-18T03:23:25.596Z,4.60
2023-03-18T03:24:25.593Z,4.60
2023-03-18T03:25:25.573Z,4.60
2023-03-18T03:26:25.567Z,4.60
2023-03-18T03:27:25.560Z,4.60
2023-03-18T03:28:25.553Z,4.60
2023-03-18T03:29:25.539Z,4.50
2023-03-18T03:30:25.537Z,4.60
2023-03-18T03:31:25.552Z,4.70
2023-03-18T03:32:25.519Z,4.80
2023-03-18T03:33:25.502Z,4.90
2023-03-18T03:34:25.494Z,4.50
2023-03-18T03:35:25.489Z,4.50
2023-03-18T03:36:25.488Z,4.50
2023-03-18T03:37:25.476Z,4.60
2023-03-18T03:38:25.459Z,4.90
2023-03-18T03:39:25.457Z,4.70
2023-03-18T03:40:25.438Z,4.50
2023-03-18T03:41:25.433Z,4.70
2023-03-18T03:42:25.429Z,4.50
2023-03-18T03:43:25.418Z,4.70
2023-03-18T03:44:25.401Z,4.70
2023-03-18T03:45:25.401Z,4.80
2023-03-18T03:46:25.421Z,4.70
2023-03-18T03:47:25.377Z,4.80
2023-03-18T03:48:25.369Z,4.60
2023-03-18T03:49:25.366Z,4.70
2023-03-18T03:50:25.346Z,4.40
2023-03-18T03:51:25.342Z,5.00
2023-03-18T03:52:25.333Z,4.70
2023-03-18T03:53:25.322Z,4.90
2023-03-18T03:54:25.314Z,4.60
2023-03-18T03:55:25.301Z,4.90
2023-03-18T03:56:25.296Z,4.20
2023-03-18T03:57:25.284Z,4.60
2023-03-18T03:58:25.275Z,4.40
2023-03-18T03:59:25.272Z,4.40
2023-03-18T04:00:25.260Z,4.60
2023-03-18T04:01:25.246Z,5.10
2023-03-18T04:02:25.257Z,4.90
2023-03-18T04:03:25.228Z,4.50
2023-03-18T04:04:25.247Z,4.70
2023-03-18T04:05:25.222Z,4.40
2023-03-18T04:06:25.203Z,4.40
2023-03-18T04:07:25.190Z,4.60
2023-03-18T04:08:25.181Z,4.60
2023-03-18T04:09:25.174Z,4.60
2023-03-18T04:10:25.175Z,4.90
2023-03-18T04:11:25.152Z,4.80
2023-03-18T04:12:25.145Z,4.60
2023-03-18T04:13:25.149Z,4.80
2023-03-18T04:14:25.127Z,4.80
2023-03-18T04:15:25.118Z,4.90
2023-03-18T04:16:25.208Z,5.00
2023-03-18T04:17:25.099Z,4.90
2023-03-18T04:18:25.088Z,4.70
2023-03-18T04:19:25.082Z,4.90
2023-03-18T04:20:25.070Z,4.90
2023-03-18T04:21:25.068Z,4.70
2023-03-18T04:22:25.052Z,4.80
2023-03-18T04:23:25.043Z,4.70
2023-03-18T04:24:25.058Z,5.10
2023-03-18T04:25:25.024Z,4.90
2023-03-18T04:26:25.015Z,4.90
2023-03-18T04:27:25.006Z,4.90
2023-03-18T04:28:24.992Z,5.00
2023-03-18T04:29:24.988Z,4.70
2023-03-18T04:30:24.981Z,5.00
2023-03-18T04:31:24.999Z,5.00
2023-03-18T04:32:24.958Z,5.10
2023-03-18T04:33:24.952Z,5.00
2023-03-18T04:34:24.943Z,5.70
2023-03-18T04:35:24.933Z,5.10
2023-03-18T04:36:24.930Z,5.30
2023-03-18T04:37:24.911Z,5.20
2023-03-18T04:38:24.903Z,5.00
2023-03-18T04:39:24.904Z,5.10
2023-03-18T04:40:25.116Z,4.90
2023-03-18T04:41:24.875Z,5.20
2023-03-18T04:42:24.868Z,5.00
2023-03-18T04:43:24.856Z,4.70
2023-03-18T04:44:24.849Z,4.90
2023-03-18T04:45:24.867Z,4.90
2023-03-18T04:46:24.865Z,5.10
2023-03-18T04:47:24.816Z,4.80
2023-03-18T04:48:24.810Z,4.70
2023-03-18T04:49:24.807Z,4.70
2023-03-18T04:50:24.790Z,4.90
2023-03-18T04:51:24.783Z,4.70
2023-03-18T04:52:24.779Z,5.00
2023-03-18T04:53:24.773Z,4.70
2023-03-18T04:54:24.755Z,5.10
2023-03-18T04:55:24.748Z,5.00
2023-03-18T04:56:24.735Z,4.70
2023-03-18T04:57:24.726Z,4.80
2023-03-18T04:58:24.715Z,4.80
2023-03-18T04:59:24.712Z,4.90
2023-03-18T05:00:24.699Z,4.60
2023-03-18T05:01:24.698Z,4.90
2023-03-18T05:02:24.678Z,4.80
2023-03-18T05:03:24.667Z,5.00
2023-03-18T05:04:24.674Z,4.70
2023-03-18T05:05:24.651Z,4.90
2023-03-18T05:06:24.663Z,4.70
2023-03-18T05:07:24.631Z,4.80
2023-03-18T05:08:24.624Z,4.90
2023-03-18T05:09:24.613Z,5.00
2023-03-18T05:10:24.604Z,5.00
2023-03-18T05:11:24.593Z,5.10
2023-03-18T05:12:24.589Z,4.90
2023-03-18T05:13:24.571Z,5.00
2023-03-18T05:14:24.572Z,5.00
2023-03-18T05:15:24.557Z,5.10
2023-03-18T05:16:24.605Z,4.90
2023-03-18T05:17:24.547Z,4.90
2023-03-18T05:18:24.528Z,4.70
2023-03-18T05:19:24.533Z,5.00
2023-03-18T05:20:24.518Z,5.20
2023-03-18T05:21:24.501Z,5.10
2023-03-18T05:22:24.492Z,4.90
2023-03-18T05:23:24.484Z,5.10
2023-03-18T05:24:24.471Z,5.00
2023-03-18T05:25:24.462Z,4.60
2023-03-18T05:26:24.462Z,4.90
2023-03-18T05:27:24.458Z,4.90
2023-03-18T05:28:24.437Z,5.30
2023-03-18T05:29:24.426Z,5.00
2023-03-18T05:30:24.417Z,5.10
2023-03-18T05:31:24.447Z,5.30
2023-03-18T05:32:24.396Z,5.00
2023-03-18T05:33:24.387Z,4.80
2023-03-18T05:34:24.380Z,5.10
2023-03-18T05:35:24.370Z,5.00
2023-03-18T05:36:24.376Z,4.90
2023-03-18T05:37:24.349Z,5.30
2023-03-18T05:38:24.336Z,5.10
2023-03-18T05:39:24.328Z,5.10
2023-03-18T05:40:24.326Z,5.00
2023-03-18T05:41:24.324Z,5.30
2023-03-18T05:42:24.295Z,5.20
2023-03-18T05:43:24.285Z,4.90
2023-03-18T05:44:24.302Z,5.00
2023-03-18T05:45:24.270Z,4.80
2023-03-18T05:46:24.299Z,5.10
2023-03-18T05:47:24.251Z,4.80
2023-03-18T05:48:24.239Z,5.00
2023-03-18T05:49:24.233Z,5.40
2023-03-18T05:50:24.223Z,5.20
2023-03-18T05:51:24.225Z,5.00
2023-03-18T05:52:24.222Z,5.10
2023-03-18T05:53:24.192Z,4.90
2023-03-18T05:54:31.456Z,5.00
2023-03-18T05:56:28.186Z,5.20
2023-03-18T05:57:28.162Z,5.20
2023-03-18T05:59:21.262Z,4.90
2023-03-18T06:00:21.244Z,5.10
2023-03-18T06:02:25.248Z,5.40
2023-03-18T06:03:25.273Z,5.70
2023-03-18T06:05:18.101Z,5.10
2023-03-18T06:06:18.079Z,5.10
2023-03-18T06:08:22.068Z,4.90
2023-03-18T06:09:22.047Z,4.80
2023-03-18T06:11:26.038Z,5.10
2023-03-18T06:12:26.016Z,5.30
2023-03-18T06:14:30.007Z,5.30
2023-03-18T06:15:30.241Z,4.90
2023-03-18T06:17:33.955Z,4.90
2023-03-18T06:18:33.957Z,5.20
2023-03-18T06:20:27.045Z,5.00
2023-03-18T06:21:27.016Z,5.00
2023-03-18T06:23:31.006Z,4.90
2023-03-18T06:24:31.014Z,5.00
2023-03-18T06:26:34.973Z,5.10
2023-03-18T06:27:34.951Z,5.40
2023-03-18T06:29:38.933Z,5.30
2023-03-18T06:30:38.915Z,5.30
2023-03-18T06:32:42.936Z,5.30
2023-03-18T06:33:42.884Z,5.30
2023-03-18T06:35:35.950Z,5.00
2023-03-18T06:36:35.766Z,5.60
2023-03-18T06:38:39.755Z,5.00
2023-03-18T06:39:41.255Z,5.00
2023-03-18T06:41:43.730Z,5.10
2023-03-18T06:42:43.713Z,4.90
2023-03-18T06:43:43.702Z,4.90
2023-03-18T06:44:43.691Z,5.30
2023-03-18T06:45:43.683Z,5.10
2023-03-18T06:46:44.076Z,5.50
2023-03-18T06:47:43.666Z,5.60
2023-03-18T06:48:43.656Z,5.30
2023-03-18T06:49:43.646Z,5.20
2023-03-18T06:50:43.642Z,5.30
2023-03-18T06:51:43.650Z,5.30
2023-03-18T06:52:43.626Z,5.50
2023-03-18T06:53:43.639Z,5.50
2023-03-18T06:54:43.607Z,5.10
2023-03-18T06:55:43.595Z,5.50
2023-03-18T06:56:46.209Z,5.20
2023-03-18T06:57:43.580Z,5.90
2023-03-18T06:58:43.566Z,6.30
2023-03-18T06:59:43.981Z,5.80
2023-03-18T07:00:43.580Z,5.50
2023-03-18T07:01:43.642Z,5.90
2023-03-18T07:02:43.544Z,5.90
2023-03-18T07:03:43.541Z,5.40
2023-03-18T07:04:43.567Z,5.60
2023-03-18T07:05:43.518Z,5.70
2023-03-18T07:06:43.497Z,5.40
2023-03-18T07:07:43.484Z,5.20
2023-03-18T07:08:43.475Z,5.60
2023-03-18T07:09:43.470Z,5.10
2023-03-18T07:10:43.477Z,5.50
2023-03-18T07:11:43.452Z,5.50
2023-03-18T07:12:43.453Z,5.50
2023-03-18T07:13:43.438Z,5.20
2023-03-18T07:14:43.422Z,5.20
2023-03-18T07:15:43.541Z,5.40
2023-03-18T07:16:43.411Z,5.30
2023-03-18T07:17:43.405Z,5.40
2023-03-18T07:18:43.485Z,5.30
2023-03-18T07:19:43.398Z,5.40
2023-03-18T07:20:43.421Z,5.60
2023-03-18T07:21:43.377Z,5.80
2023-03-18T07:22:43.356Z,5.20
2023-03-18T07:23:43.360Z,5.30
2023-03-18T07:24:43.338Z,5.50
2023-03-18T07:25:46.216Z,5.50
2023-03-18T07:26:43.351Z,5.00
2023-03-18T07:27:43.327Z,5.20
2023-03-18T07:28:43.303Z,5.40
2023-03-18T07:29:43.294Z,5.20
2023-03-18T07:30:43.281Z,5.20
2023-03-18T07:31:44.137Z,5.50
2023-03-18T07:32:43.297Z,5.30
2023-03-18T07:33:43.258Z,5.30
2023-03-18T07:34:43.250Z,5.40
2023-03-18T07:35:43.286Z,5.60
2023-03-18T07:36:43.236Z,4.90
2023-03-18T07:37:43.224Z,5.10
2023-03-18T07:38:43.228Z,5.30
2023-03-18T07:39:43.206Z,5.30
2023-03-18T07:40:43.212Z,5.40
2023-03-18T07:41:43.202Z,5.30
2023-03-18T07:42:43.184Z,5.40
2023-03-18T07:43:43.177Z,5.40
2023-03-18T07:44:43.170Z,5.40
2023-03-18T07:45:43.166Z,5.40
2023-03-18T07:46:43.186Z,5.20
2023-03-18T07:47:43.980Z,5.10
2023-03-18T07:48:43.155Z,5.40
2023-03-18T07:49:43.122Z,5.50
2023-03-18T07:50:43.115Z,5.20
2023-03-18T07:51:43.104Z,5.40
2023-03-18T07:52:43.094Z,5.10
2023-03-18T07:53:43.099Z,5.20
2023-03-18T07:54:43.127Z,5.30
2023-03-18T07:55:43.073Z,5.30
2023-03-18T07:56:43.115Z,5.30
2023-03-18T07:57:43.056Z,5.50
2023-03-18T07:58:43.064Z,5.40
2023-03-18T07:59:43.040Z,5.20
2023-03-18T08:00:43.034Z,4.90
2023-03-18T08:01:43.022Z,5.20
2023-03-18T08:02:43.032Z,4.90
2023-03-18T08:03:43.075Z,4.80
2023-03-18T08:04:43.048Z,4.80
2023-03-18T08:05:42.991Z,4.90
2023-03-18T08:06:42.984Z,5.00
2023-03-18T08:07:43.057Z,5.10
2023-03-18T08:08:42.981Z,4.90
2023-03-18T08:09:42.957Z,4.80
2023-03-18T08:10:42.965Z,4.80
2023-03-18T08:11:42.940Z,5.00
2023-03-18T08:12:52.718Z,4.90
2023-03-18T08:13:42.932Z,4.80
2023-03-18T08:14:42.918Z,5.30
2023-03-18T08:15:42.941Z,4.90
2023-03-18T08:16:42.952Z,4.70
2023-03-18T08:17:42.904Z,5.00
2023-03-18T08:18:43.050Z,4.70
2023-03-18T08:19:42.886Z,4.90
2023-03-18T08:20:42.881Z,4.90
2023-03-18T08:21:42.870Z,4.70
2023-03-18T08:22:42.863Z,4.80
2023-03-18T08:23:42.859Z,4.70
2023-03-18T08:24:45.159Z,4.50
2023-03-18T08:25:42.838Z,4.80
2023-03-18T08:26:42.929Z,4.80
2023-03-18T08:27:42.824Z,4.80
2023-03-18T08:28:42.820Z,4.70
2023-03-18T08:29:42.812Z,5.10
2023-03-18T08:30:42.801Z,4.60
2023-03-18T08:31:42.827Z,4.80
2023-03-18T08:32:42.804Z,4.70
2023-03-18T08:33:42.791Z,4.50
2023-03-18T08:34:42.782Z,4.70
2023-03-18T08:35:42.819Z,4.70
2023-03-18T08:36:42.783Z,4.40
2023-03-18T08:37:42.766Z,4.80
2023-03-18T08:38:42.751Z,4.40
2023-03-18T08:39:42.745Z,4.40
2023-03-18T08:40:42.738Z,4.40
2023-03-18T08:41:44.790Z,4.30
2023-03-18T08:42:42.722Z,4.50
2023-03-18T08:43:42.716Z,4.10
2023-03-18T08:44:42.710Z,4.10
2023-03-18T08:45:42.723Z,4.40
2023-03-18T08:46:42.698Z,4.50
2023-03-18T08:47:42.708Z,4.40
2023-03-18T08:48:42.686Z,3.90
2023-03-18T08:49:42.700Z,4.00
2023-03-18T08:50:42.675Z,4.10
2023-03-18T08:51:42.684Z,4.10
2023-03-18T08:52:42.670Z,4.00
2023-03-18T08:53:42.655Z,4.10
2023-03-18T08:54:42.659Z,3.80
2023-03-18T08:55:42.656Z,4.30
2023-03-18T08:56:42.665Z,3.90
2023-03-18T08:57:42.635Z,4.00
2023-03-18T08:58:42.626Z,4.30
2023-03-18T08:59:42.628Z,4.50
2023-03-18T09:00:42.619Z,4.40
2023-03-18T09:01:42.695Z,4.20
2023-03-18T09:02:42.601Z,4.20
2023-03-18T09:03:42.650Z,4.20
2023-03-18T09:04:42.591Z,4.20
2023-03-18T09:05:42.586Z,4.20
2023-03-18T09:06:42.581Z,4.00
2023-03-18T09:07:42.575Z,4.00
2023-03-18T09:08:42.577Z,4.10
2023-03-18T09:09:44.395Z,4.10
2023-03-18T09:10:42.557Z,4.10
2023-03-18T09:11:42.550Z,4.40
2023-03-18T09:12:42.544Z,3.90
2023-03-18T09:13:42.540Z,3.90
2023-03-18T09:14:42.573Z,3.70
2023-03-18T09:15:42.527Z,4.00
2023-03-18T09:16:42.579Z,3.90
2023-03-18T09:17:59.917Z,3.70
2023-03-18T09:18:44.851Z,3.90
2023-03-18T09:19:42.502Z,4.00
2023-03-18T09:20:42.510Z,3.80
2023-03-18T09:21:42.492Z,3.70
2023-03-18T09:22:42.534Z,3.60
2023-03-18T09:23:42.532Z,4.00
2023-03-18T09:24:42.537Z,3.70
2023-03-18T09:25:42.566Z,3.90
2023-03-18T09:26:42.461Z,3.70
2023-03-18T09:27:42.457Z,3.80
2023-03-18T09:28:42.453Z,3.80
2023-03-18T09:29:42.465Z,3.80
2023-03-18T09:30:42.512Z,3.60
2023-03-18T09:31:42.433Z,3.70
2023-03-18T09:32:42.426Z,3.50
2023-03-18T09:33:42.421Z,3.50
2023-03-18T09:34:42.417Z,3.50
2023-03-18T09:35:42.447Z,3.60
2023-03-18T09:36:42.412Z,3.70
2023-03-18T09:37:42.438Z,3.40
2023-03-18T09:38:42.409Z,3.40
2023-03-18T09:39:42.395Z,3.60
2023-03-18T09:40:42.387Z,3.40
2023-03-18T09:41:42.374Z,3.50
2023-03-18T09:42:42.372Z,3.50
2023-03-18T09:43:42.366Z,3.50
2023-03-18T09:44:42.366Z,3.70
2023-03-18T09:45:42.394Z,3.40
2023-03-18T09:46:42.477Z,3.40
2023-03-18T09:47:42.348Z,3.30
2023-03-18T09:48:42.343Z,3.70
2023-03-18T09:49:42.342Z,3.70
2023-03-18T09:50:42.332Z,3.50
2023-03-18T09:51:42.328Z,3.60
2023-03-18T09:52:42.332Z,3.80
2023-03-18T09:53:42.316Z,3.70
2023-03-18T09:54:42.309Z,3.60
2023-03-18T09:55:42.309Z,3.60
2023-03-18T09:56:42.316Z,3.30
2023-03-18T09:57:42.295Z,3.40
2023-03-18T09:58:42.310Z,3.60
2023-03-18T09:59:42.288Z,3.30
2023-03-18T10:00:42.285Z,3.60
2023-03-18T10:01:42.311Z,3.20
2023-03-18T10:02:42.268Z,3.40
2023-03-18T10:03:42.313Z,3.30
2023-03-18T10:04:42.262Z,3.50
2023-03-18T10:05:42.254Z,3.20
2023-03-18T10:06:42.249Z,3.30
2023-03-18T10:07:42.254Z,3.30
2023-03-18T10:08:42.245Z,3.40
2023-03-18T10:09:42.239Z,3.50
2023-03-18T10:10:42.228Z,3.50
2023-03-18T10:11:42.226Z,3.40
2023-03-18T10:12:42.218Z,3.20
2023-03-18T10:13:42.216Z,3.60
2023-03-18T10:14:42.207Z,3.50
2023-03-18T10:15:42.218Z,3.10
2023-03-18T10:16:42.203Z,3.50
2023-03-18T10:17:42.211Z,3.40
2023-03-18T10:18:42.192Z,3.30
2023-03-18T10:19:42.257Z,3.30
2023-03-18T10:20:42.179Z,3.60
2023-03-18T10:21:42.178Z,3.60
2023-03-18T10:22:42.172Z,3.70
2023-03-18T10:23:42.234Z,3.60
2023-03-18T10:24:42.187Z,3.50
2023-03-18T10:25:42.154Z,3.60
2023-03-18T10:26:42.156Z,3.40
2023-03-18T10:27:42.149Z,3.80
2023-03-18T10:28:42.141Z,3.80
2023-03-18T10:29:42.138Z,3.80
2023-03-18T10:30:43.013Z,3.90
2023-03-18T10:31:42.142Z,3.80
2023-03-18T10:32:49.469Z,3.60
2023-03-18T10:33:42.118Z,3.70
2023-03-18T10:34:42.114Z,3.70
2023-03-18T10:35:42.122Z,3.70
2023-03-18T10:36:42.104Z,3.60
2023-03-18T10:37:42.101Z,3.60
2023-03-18T10:38:42.095Z,4.00
2023-03-18T10:39:42.285Z,3.90
2023-03-18T10:40:42.086Z,3.70
2023-03-18T10:41:42.085Z,3.80
2023-03-18T10:42:42.076Z,3.40
2023-03-18T10:43:42.072Z,3.60
2023-03-18T10:44:42.076Z,3.70
2023-03-18T10:45:42.066Z,3.70
2023-03-18T10:46:42.192Z,3.70
2023-03-18T10:47:42.056Z,3.70
2023-03-18T10:48:42.049Z,3.90
2023-03-18T10:49:42.047Z,3.70
2023-03-18T10:50:42.042Z,4.00
2023-03-18T10:51:42.038Z,3.70
2023-03-18T10:52:42.032Z,3.70
2023-03-18T10:53:42.029Z,3.50
2023-03-18T10:54:42.027Z,3.50
2023-03-18T10:55:42.022Z,3.70
2023-03-18T10:56:42.013Z,3.70
2023-03-18T10:57:42.012Z,3.70
2023-03-18T10:58:42.022Z,3.70
2023-03-18T10:59:42.002Z,3.60
2023-03-18T11:00:42.008Z,3.40
2023-03-18T11:01:42.020Z,3.70
2023-03-18T11:02:42.011Z,3.60
2023-03-18T11:03:41.989Z,3.40
2023-03-18T11:04:42.000Z,3.90
2023-03-18T11:05:42.098Z,3.70
2023-03-18T11:06:41.970Z,3.70
2023-03-18T11:07:41.977Z,3.40
2023-03-18T11:08:41.980Z,3.60
2023-03-18T11:09:41.959Z,4.00
2023-03-18T11:10:41.950Z,3.80
2023-03-18T11:11:41.952Z,3.90
2023-03-18T11:12:42.018Z,4.20
2023-03-18T11:13:41.942Z,4.10
2023-03-18T11:14:41.938Z,3.90
2023-03-18T11:15:42.005Z,4.20
2023-03-18T11:16:41.932Z,4.00
2023-03-18T11:17:41.939Z,3.70
2023-03-18T11:18:41.940Z,3.60
2023-03-18T11:19:41.952Z,3.80
2023-03-18T11:20:41.914Z,3.60
2023-03-18T11:21:41.911Z,3.50
2023-03-18T11:22:41.906Z,4.10
2023-03-18T11:23:41.906Z,3.60
2023-03-18T11:24:41.899Z,3.60
2023-03-18T11:25:41.903Z,3.90
2023-03-18T11:26:41.889Z,3.80
2023-03-18T11:27:41.892Z,3.40
2023-03-18T11:28:41.928Z,3.90
2023-03-18T11:29:41.884Z,3.60
2023-03-18T11:30:42.045Z,3.50
2023-03-18T11:31:41.998Z,3.90
2023-03-18T11:32:41.903Z,3.60
2023-03-18T11:33:41.870Z,3.60
2023-03-18T11:34:41.862Z,3.90
2023-03-18T11:35:42.026Z,4.10
2023-03-18T11:36:41.856Z,3.60
2023-03-18T11:37:41.861Z,3.60
2023-03-18T11:38:41.850Z,3.80
2023-03-18T11:39:41.880Z,3.80
2023-03-18T11:40:41.843Z,3.70
2023-03-18T11:41:41.842Z,3.60
2023-03-18T11:42:41.841Z,3.90
2023-03-18T11:43:41.831Z,4.10
2023-03-18T11:44:41.826Z,4.00
2023-03-18T11:45:41.819Z,4.00
2023-03-18T11:46:41.971Z,3.70
2023-03-18T11:47:41.817Z,3.70
2023-03-18T11:48:41.813Z,3.70
2023-03-18T11:49:41.815Z,3.60
2023-03-18T11:50:41.804Z,4.00
2023-03-18T11:51:41.806Z,3.80
2023-03-18T11:52:41.804Z,3.90
2023-03-18T11:53:41.796Z,3.40
2023-03-18T11:54:41.792Z,3.60
2023-03-18T11:55:48.954Z,3.70
2023-03-18T11:57:34.936Z,3.40
2023-03-18T11:58:34.910Z,3.40
2023-03-18T12:00:38.912Z,3.10
2023-03-18T12:01:38.907Z,3.20
2023-03-18T12:03:42.884Z,3.30
2023-03-18T12:04:42.896Z,3.40
2023-03-18T12:06:35.811Z,3.10
2023-03-18T12:07:38.041Z,3.00
2023-03-18T12:09:39.829Z,2.90
2023-03-18T12:10:39.807Z,3.00
2023-03-18T12:12:43.820Z,2.80
2023-03-18T12:13:43.807Z,3.20
2023-03-18T12:15:47.984Z,2.90
2023-03-18T12:16:47.983Z,3.00
2023-03-18T12:18:51.990Z,2.90
2023-03-18T12:19:51.975Z,3.10
2023-03-18T12:21:55.992Z,2.90
2023-03-18T12:22:55.976Z,2.90
2023-03-18T12:24:59.974Z,2.70
2023-03-18T12:25:59.979Z,3.10
2023-03-18T12:28:04.003Z,2.80
2023-03-18T12:29:03.990Z,3.10
2023-03-18T12:31:08.002Z,3.20
2023-03-18T12:32:07.983Z,3.10
2023-03-18T12:34:14.000Z,3.10
2023-03-18T12:35:11.977Z,3.20
2023-03-18T12:37:04.932Z,3.70
2023-03-18T12:38:04.919Z,3.00
2023-03-18T12:40:08.914Z,3.20
2023-03-18T12:41:08.896Z,3.50
2023-03-18T12:43:12.923Z,3.30
2023-03-18T12:44:12.912Z,3.40
2023-03-18T12:46:17.039Z,3.30
2023-03-18T12:47:16.906Z,3.10
2023-03-18T12:49:20.927Z,2.90
2023-03-18T12:50:20.935Z,3.40
2023-03-18T12:52:24.915Z,2.90
2023-03-18T12:53:24.906Z,3.00
2023-03-18T12:55:28.893Z,3.00
2023-03-18T12:56:28.888Z,3.00
2023-03-18T12:58:32.900Z,2.80
2023-03-18T12:59:32.889Z,3.10
2023-03-18T13:01:26.097Z,2.90
2023-03-18T13:02:26.006Z,2.90
2023-03-18T13:04:29.976Z,3.00
2023-03-18T13:05:29.961Z,2.90
2023-03-18T13:07:22.885Z,2.90
2023-03-18T13:08:22.873Z,3.10
2023-03-18T13:10:27.107Z,2.90
2023-03-18T13:11:26.885Z,2.70
2023-03-18T13:13:30.862Z,3.10
2023-03-18T13:14:30.905Z,3.10
2023-03-18T13:16:23.786Z,3.40
2023-03-18T13:17:23.759Z,3.00
2023-03-18T13:19:27.770Z,3.10
2023-03-18T13:20:27.745Z,2.90
2023-03-18T13:22:31.740Z,2.80
2023-03-18T13:23:31.896Z,2.80
2023-03-18T13:25:35.717Z,2.60
2023-03-18T13:26:35.697Z,2.90
2023-03-18T13:28:39.713Z,3.10
2023-03-18T13:29:39.684Z,2.90
2023-03-18T13:31:43.721Z,2.90
2023-03-18T13:32:43.710Z,3.10
2023-03-18T13:34:47.673Z,3.00
2023-03-18T13:35:47.682Z,2.80
2023-03-18T13:37:51.672Z,2.90
2023-03-18T13:38:51.660Z,2.90
2023-03-18T13:40:44.777Z,3.20
2023-03-18T13:41:44.768Z,3.00
2023-03-18T13:43:48.782Z,3.10
2023-03-18T13:44:48.769Z,3.10
2023-03-18T13:46:41.680Z,2.90
2023-03-18T13:47:41.668Z,3.00
2023-03-18T13:49:45.671Z,3.00
2023-03-18T13:50:45.668Z,3.10
2023-03-18T13:52:49.668Z,3.10
2023-03-18T13:53:49.664Z,2.90
2023-03-18T13:55:53.647Z,3.00
2023-03-18T13:56:53.644Z,3.10
2023-03-18T13:58:57.643Z,3.10
2023-03-18T13:59:57.641Z,3.20
2023-03-18T14:01:50.810Z,3.10
2023-03-18T14:02:50.825Z,3.20
2023-03-18T14:04:54.708Z,2.90
2023-03-18T14:05:54.694Z,2.80
2023-03-18T14:07:58.701Z,3.10
2023-03-18T14:08:58.682Z,3.10
2023-03-18T14:11:02.696Z,3.20
2023-03-18T14:12:02.691Z,3.00
2023-03-18T14:14:06.700Z,2.90
2023-03-18T14:15:06.678Z,3.10
2023-03-18T14:16:59.620Z,3.00
2023-03-18T14:17:59.614Z,3.00
2023-03-18T14:20:03.604Z,3.10
2023-03-18T14:21:03.599Z,3.10
2023-03-18T14:22:56.730Z,3.40
2023-03-18T14:23:56.694Z,3.50
2023-03-18T14:25:49.810Z,3.10
2023-03-18T14:26:49.916Z,2.90
2023-03-18T14:28:53.784Z,3.00
2023-03-18T14:29:53.779Z,3.00
2023-03-18T14:31:57.779Z,3.10
2023-03-18T14:32:57.847Z,3.00